sensor_id;sensor_type;location;lat;lon;timestamp;pressure;altitude;pressure_sealevel;temperature;humidity
77027;BME280;65956;52.986;17.490;2023-02-03T00:02:09;100872.83;;;-2.23;89.04
77027;BME280;65956;52.986;17.490;2023-02-03T00:04:36;100875.54;;;-2.25;89.19
77027;BME280;65956;52.986;17.490;2023-02-03T00:07:03;100871.85;;;-2.27;88.90
77027;BME280;65956;52.986;17.490;2023-02-03T00:09:31;100872.83;;;-2.28;89.17
77027;BME280;65956;52.986;17.490;2023-02-03T00:11:58;100874.13;;;-2.30;88.95
77027;BME280;65956;52.986;17.490;2023-02-03T00:14:26;100867.81;;;-2.32;89.12
77027;BME280;65956;52.986;17.490;2023-02-03T00:16:53;100863.39;;;-2.32;89.29
77027;BME280;65956;52.986;17.490;2023-02-03T00:19:20;100865.89;;;-2.31;89.38
77027;BME280;65956;52.986;17.490;2023-02-03T00:21:47;100867.36;;;-2.29;89.27
77027;BME280;65956;52.986;17.490;2023-02-03T00:24:15;100872.10;;;-2.26;89.66
77027;BME280;65956;52.986;17.490;2023-02-03T00:26:42;100870.73;;;-2.23;89.51
77027;BME280;65956;52.986;17.490;2023-02-03T00:29:10;100871.68;;;-2.23;89.68
77027;BME280;65956;52.986;17.490;2023-02-03T00:31:37;100867.09;;;-2.23;89.54
77027;BME280;65956;52.986;17.490;2023-02-03T00:34:05;100862.94;;;-2.25;89.66
77027;BME280;65956;52.986;17.490;2023-02-03T00:36:33;100861.95;;;-2.25;89.48
77027;BME280;65956;52.986;17.490;2023-02-03T00:39:00;100864.73;;;-2.25;89.53
77027;BME280;65956;52.986;17.490;2023-02-03T00:41:29;100861.36;;;-2.27;89.51
77027;BME280;65956;52.986;17.490;2023-02-03T00:43:57;100858.73;;;-2.29;89.58
77027;BME280;65956;52.986;17.490;2023-02-03T00:46:24;100856.23;;;-2.31;89.40
77027;BME280;65956;52.986;17.490;2023-02-03T00:48:52;100851.92;;;-2.31;89.49
77027;BME280;65956;52.986;17.490;2023-02-03T00:51:19;100841.94;;;-2.32;89.28
77027;BME280;65956;52.986;17.490;2023-02-03T00:53:47;100835.44;;;-2.31;89.57
77027;BME280;65956;52.986;17.490;2023-02-03T00:56:14;100831.14;;;-2.31;89.55
77027;BME280;65956;52.986;17.490;2023-02-03T00:58:42;100832.17;;;-2.32;89.44
77027;BME280;65956;52.986;17.490;2023-02-03T01:01:09;100831.40;;;-2.30;89.59
77027;BME280;65956;52.986;17.490;2023-02-03T01:03:37;100829.32;;;-2.28;89.54
77027;BME280;65956;52.986;17.490;2023-02-03T01:06:16;100818.77;;;-2.26;89.50
77027;BME280;65956;52.986;17.490;2023-02-03T01:08:44;100815.94;;;-2.23;89.68
77027;BME280;65956;52.986;17.490;2023-02-03T01:11:18;100812.48;;;-2.22;89.38
77027;BME280;65956;52.986;17.490;2023-02-03T01:13:46;100804.91;;;-2.20;89.45
77027;BME280;65956;52.986;17.490;2023-02-03T01:16:16;100796.39;;;-2.19;89.38
77027;BME280;65956;52.986;17.490;2023-02-03T01:18:45;100790.75;;;-2.17;89.40
77027;BME280;65956;52.986;17.490;2023-02-03T01:21:21;100782.46;;;-2.16;89.31
77027;BME280;65956;52.986;17.490;2023-02-03T01:23:51;100777.54;;;-2.15;89.41
77027;BME280;65956;52.986;17.490;2023-02-03T01:26:20;100771.86;;;-2.16;89.25
77027;BME280;65956;52.986;17.490;2023-02-03T01:28:53;100763.91;;;-2.17;89.29
77027;BME280;65956;52.986;17.490;2023-02-03T01:31:26;100755.20;;;-2.17;89.17
77027;BME280;65956;52.986;17.490;2023-02-03T01:33:54;100743.31;;;-2.14;89.53
77027;BME280;65956;52.986;17.490;2023-02-03T01:36:23;100738.62;;;-2.14;89.26
77027;BME280;65956;52.986;17.490;2023-02-03T01:38:51;100736.42;;;-2.13;89.55
77027;BME280;65956;52.986;17.490;2023-02-03T01:41:27;100737.17;;;-2.12;89.34
77027;BME280;65956;52.986;17.490;2023-02-03T01:43:56;100743.55;;;-2.09;89.20
77027;BME280;65956;52.986;17.490;2023-02-03T01:49:10;100747.16;;;-2.04;89.07
77027;BME280;65956;52.986;17.490;2023-02-03T01:51:40;100749.88;;;-2.02;89.17
77027;BME280;65956;52.986;17.490;2023-02-03T01:54:12;100740.65;;;-2.01;88.93
77027;BME280;65956;52.986;17.490;2023-02-03T01:56:43;100737.09;;;-2.00;89.33
77027;BME280;65956;52.986;17.490;2023-02-03T01:59:15;100734.08;;;-1.98;89.24
77027;BME280;65956;52.986;17.490;2023-02-03T02:01:43;100727.63;;;-1.97;89.26
77027;BME280;65956;52.986;17.490;2023-02-03T02:04:11;100720.59;;;-1.97;89.08
77027;BME280;65956;52.986;17.490;2023-02-03T02:06:39;100716.34;;;-1.97;89.25
77027;BME280;65956;52.986;17.490;2023-02-03T02:09:09;100711.70;;;-2.00;89.38
77027;BME280;65956;52.986;17.490;2023-02-03T02:14:24;100690.57;;;-2.01;89.40
77027;BME280;65956;52.986;17.490;2023-02-03T02:17:21;100686.42;;;-2.01;89.15
77027;BME280;65956;52.986;17.490;2023-02-03T02:25:25;100673.81;;;-2.03;89.18
77027;BME280;65956;52.986;17.490;2023-02-03T02:31:49;100656.39;;;-2.03;89.48
77027;BME280;65956;52.986;17.490;2023-02-03T02:37:33;100648.64;;;-2.03;89.14
77027;BME280;65956;52.986;17.490;2023-02-03T02:48:16;100638.60;;;-2.01;89.49
77027;BME280;65956;52.986;17.490;2023-02-03T02:50:51;100638.77;;;-2.01;89.42
77027;BME280;65956;52.986;17.490;2023-02-03T02:53:23;100636.63;;;-2.02;89.74
77027;BME280;65956;52.986;17.490;2023-02-03T02:55:52;100642.86;;;-2.03;89.34
77027;BME280;65956;52.986;17.490;2023-02-03T02:58:23;100647.05;;;-2.03;89.48
77027;BME280;65956;52.986;17.490;2023-02-03T03:00:53;100649.41;;;-2.02;89.18
77027;BME280;65956;52.986;17.490;2023-02-03T03:03:22;100648.48;;;-2.02;89.43
77027;BME280;65956;52.986;17.490;2023-02-03T03:06:00;100642.02;;;-2.00;89.89
77027;BME280;65956;52.986;17.490;2023-02-03T03:08:44;100636.16;;;-1.98;89.47
77027;BME280;65956;52.986;17.490;2023-02-03T03:11:15;100629.45;;;-1.97;89.33
77027;BME280;65956;52.986;17.490;2023-02-03T03:14:03;100621.59;;;-1.97;89.64
77027;BME280;65956;52.986;17.490;2023-02-03T03:16:37;100613.97;;;-1.95;89.66
77027;BME280;65956;52.986;17.490;2023-02-03T03:19:20;100609.98;;;-1.93;89.59
77027;BME280;65956;52.986;17.490;2023-02-03T03:21:54;100604.01;;;-1.91;89.55
77027;BME280;65956;52.986;17.490;2023-02-03T03:24:30;100592.03;;;-1.88;89.60
77027;BME280;65956;52.986;17.490;2023-02-03T03:27:07;100582.23;;;-1.85;89.36
77027;BME280;65956;52.986;17.490;2023-02-03T03:29:45;100575.11;;;-1.82;89.60
77027;BME280;65956;52.986;17.490;2023-02-03T03:32:13;100572.00;;;-1.79;89.32
77027;BME280;65956;52.986;17.490;2023-02-03T03:34:42;100570.30;;;-1.78;89.34
77027;BME280;65956;52.986;17.490;2023-02-03T03:37:23;100566.56;;;-1.78;89.25
77027;BME280;65956;52.986;17.490;2023-02-03T03:39:57;100561.58;;;-1.75;89.18
77027;BME280;65956;52.986;17.490;2023-02-03T03:42:50;100554.68;;;-1.74;89.13
77027;BME280;65956;52.986;17.490;2023-02-03T03:47:56;100547.90;;;-1.71;89.03
77027;BME280;65956;52.986;17.490;2023-02-03T03:50:29;100541.86;;;-1.69;88.66
77027;BME280;65956;52.986;17.490;2023-02-03T03:53:00;100540.70;;;-1.66;88.79
77027;BME280;65956;52.986;17.490;2023-02-03T03:55:30;100542.41;;;-1.64;88.84
77027;BME280;65956;52.986;17.490;2023-02-03T03:58:03;100533.06;;;-1.61;88.65
77027;BME280;65956;52.986;17.490;2023-02-03T04:00:34;100530.69;;;-1.60;88.36
77027;BME280;65956;52.986;17.490;2023-02-03T04:03:14;100525.64;;;-1.56;88.31
77027;BME280;65956;52.986;17.490;2023-02-03T04:05:43;100521.73;;;-1.54;88.26
77027;BME280;65956;52.986;17.490;2023-02-03T04:08:10;100516.52;;;-1.52;88.30
77027;BME280;65956;52.986;17.490;2023-02-03T04:10:40;100509.60;;;-1.53;87.86
77027;BME280;65956;52.986;17.490;2023-02-03T04:13:09;100501.75;;;-1.51;87.83
77027;BME280;65956;52.986;17.490;2023-02-03T04:15:37;100497.65;;;-1.50;87.92
77027;BME280;65956;52.986;17.490;2023-02-03T04:18:04;100491.06;;;-1.48;87.82
77027;BME280;65956;52.986;17.490;2023-02-03T04:20:32;100493.13;;;-1.47;88.04
77027;BME280;65956;52.986;17.490;2023-02-03T04:22:59;100485.55;;;-1.47;88.14
77027;BME280;65956;52.986;17.490;2023-02-03T04:25:27;100485.70;;;-1.45;87.72
77027;BME280;65956;52.986;17.490;2023-02-03T04:27:55;100482.48;;;-1.43;87.86
77027;BME280;65956;52.986;17.490;2023-02-03T04:30:22;100483.96;;;-1.42;87.49
77027;BME280;65956;52.986;17.490;2023-02-03T04:32:49;100484.94;;;-1.42;87.58
77027;BME280;65956;52.986;17.490;2023-02-03T04:35:17;100481.85;;;-1.43;87.63
77027;BME280;65956;52.986;17.490;2023-02-03T04:37:45;100479.05;;;-1.43;87.72
77027;BME280;65956;52.986;17.490;2023-02-03T04:40:12;100473.95;;;-1.42;87.49
77027;BME280;65956;52.986;17.490;2023-02-03T04:42:39;100470.73;;;-1.41;87.53
77027;BME280;65956;52.986;17.490;2023-02-03T04:45:09;100468.16;;;-1.41;87.39
77027;BME280;65956;52.986;17.490;2023-02-03T04:47:36;100460.02;;;-1.41;87.53
77027;BME280;65956;52.986;17.490;2023-02-03T04:50:05;100462.45;;;-1.39;87.36
77027;BME280;65956;52.986;17.490;2023-02-03T04:52:33;100462.48;;;-1.36;87.25
77027;BME280;65956;52.986;17.490;2023-02-03T04:55:00;100452.05;;;-1.33;87.56
77027;BME280;65956;52.986;17.490;2023-02-03T04:57:27;100440.19;;;-1.33;87.50
77027;BME280;65956;52.986;17.490;2023-02-03T04:59:54;100436.35;;;-1.31;87.22
77027;BME280;65956;52.986;17.490;2023-02-03T05:02:22;100433.69;;;-1.28;87.43
77027;BME280;65956;52.986;17.490;2023-02-03T05:04:49;100426.60;;;-1.26;87.13
77027;BME280;65956;52.986;17.490;2023-02-03T05:07:16;100425.28;;;-1.25;87.02
77027;BME280;65956;52.986;17.490;2023-02-03T05:09:43;100416.47;;;-1.23;87.19
77027;BME280;65956;52.986;17.490;2023-02-03T05:12:10;100410.80;;;-1.20;87.23
77027;BME280;65956;52.986;17.490;2023-02-03T05:14:37;100401.54;;;-1.19;87.28
77027;BME280;65956;52.986;17.490;2023-02-03T05:17:05;100386.98;;;-1.18;87.17
77027;BME280;65956;52.986;17.490;2023-02-03T05:19:32;100375.34;;;-1.18;87.20
77027;BME280;65956;52.986;17.490;2023-02-03T05:21:59;100363.38;;;-1.19;87.22
77027;BME280;65956;52.986;17.490;2023-02-03T05:24:26;100355.18;;;-1.18;87.17
77027;BME280;65956;52.986;17.490;2023-02-03T05:26:53;100349.46;;;-1.17;87.44
77027;BME280;65956;52.986;17.490;2023-02-03T05:29:20;100348.90;;;-1.16;87.55
77027;BME280;65956;52.986;17.490;2023-02-03T05:31:47;100342.56;;;-1.16;87.40
77027;BME280;65956;52.986;17.490;2023-02-03T05:34:15;100338.23;;;-1.15;87.71
77027;BME280;65956;52.986;17.490;2023-02-03T05:36:42;100328.89;;;-1.16;87.75
77027;BME280;65956;52.986;17.490;2023-02-03T05:39:09;100318.01;;;-1.16;87.76
77027;BME280;65956;52.986;17.490;2023-02-03T05:41:36;100310.61;;;-1.15;87.95
77027;BME280;65956;52.986;17.490;2023-02-03T05:44:26;100298.66;;;-1.13;87.78
77027;BME280;65956;52.986;17.490;2023-02-03T05:46:55;100296.41;;;-1.13;87.54
77027;BME280;65956;52.986;17.490;2023-02-03T05:49:23;100289.63;;;-1.12;87.62
77027;BME280;65956;52.986;17.490;2023-02-03T05:51:52;100284.54;;;-1.12;87.76
77027;BME280;65956;52.986;17.490;2023-02-03T05:54:20;100279.94;;;-1.11;87.74
77027;BME280;65956;52.986;17.490;2023-02-03T05:56:48;100273.83;;;-1.09;87.63
77027;BME280;65956;52.986;17.490;2023-02-03T05:59:15;100269.77;;;-1.08;87.34
77027;BME280;65956;52.986;17.490;2023-02-03T06:01:42;100265.51;;;-1.08;87.42
77027;BME280;65956;52.986;17.490;2023-02-03T06:04:09;100266.77;;;-1.08;87.45
77027;BME280;65956;52.986;17.490;2023-02-03T06:06:37;100266.74;;;-1.06;87.16
77027;BME280;65956;52.986;17.490;2023-02-03T06:09:06;100261.67;;;-1.07;87.20
77027;BME280;65956;52.986;17.490;2023-02-03T06:11:35;100261.34;;;-1.07;87.15
77027;BME280;65956;52.986;17.490;2023-02-03T06:14:03;100261.50;;;-1.07;87.39
77027;BME280;65956;52.986;17.490;2023-02-03T06:16:30;100255.81;;;-1.07;87.22
77027;BME280;65956;52.986;17.490;2023-02-03T06:18:57;100250.70;;;-1.05;87.34
77027;BME280;65956;52.986;17.490;2023-02-03T06:21:27;100245.96;;;-1.04;87.35
77027;BME280;65956;52.986;17.490;2023-02-03T06:23:54;100248.80;;;-1.02;87.41
77027;BME280;65956;52.986;17.490;2023-02-03T06:26:22;100237.03;;;-1.02;87.22
77027;BME280;65956;52.986;17.490;2023-02-03T06:28:51;100219.77;;;-1.03;87.25
77027;BME280;65956;52.986;17.490;2023-02-03T06:31:18;100219.73;;;-1.01;87.14
77027;BME280;65956;52.986;17.490;2023-02-03T06:33:45;100216.41;;;-0.99;87.30
77027;BME280;65956;52.986;17.490;2023-02-03T06:36:12;100212.25;;;-0.98;87.68
77027;BME280;65956;52.986;17.490;2023-02-03T06:38:39;100205.95;;;-0.97;87.66
77027;BME280;65956;52.986;17.490;2023-02-03T06:41:06;100203.85;;;-0.96;87.78
77027;BME280;65956;52.986;17.490;2023-02-03T06:43:34;100201.11;;;-0.92;87.93
77027;BME280;65956;52.986;17.490;2023-02-03T06:46:01;100202.48;;;-0.93;87.88
77027;BME280;65956;52.986;17.490;2023-02-03T06:48:28;100194.73;;;-0.94;88.13
77027;BME280;65956;52.986;17.490;2023-02-03T06:50:55;100182.48;;;-0.93;88.33
77027;BME280;65956;52.986;17.490;2023-02-03T06:53:23;100175.40;;;-0.92;88.66
77027;BME280;65956;52.986;17.490;2023-02-03T06:55:50;100166.85;;;-0.91;89.02
77027;BME280;65956;52.986;17.490;2023-02-03T06:58:18;100159.13;;;-0.91;88.94
77027;BME280;65956;52.986;17.490;2023-02-03T07:00:45;100149.91;;;-0.88;89.21
77027;BME280;65956;52.986;17.490;2023-02-03T07:03:12;100141.55;;;-0.87;89.42
77027;BME280;65956;52.986;17.490;2023-02-03T07:05:39;100140.39;;;-0.85;89.57
77027;BME280;65956;52.986;17.490;2023-02-03T07:08:06;100137.41;;;-0.84;89.82
77027;BME280;65956;52.986;17.490;2023-02-03T07:10:33;100125.40;;;-0.83;89.89
77027;BME280;65956;52.986;17.490;2023-02-03T07:13:02;100112.89;;;-0.80;89.67
77027;BME280;65956;52.986;17.490;2023-02-03T07:15:30;100107.52;;;-0.76;89.76
77027;BME280;65956;52.986;17.490;2023-02-03T07:17:57;100103.73;;;-0.74;90.17
77027;BME280;65956;52.986;17.490;2023-02-03T07:20:24;100099.97;;;-0.71;90.05
77027;BME280;65956;52.986;17.490;2023-02-03T07:22:56;100090.04;;;-0.70;89.90
77027;BME280;65956;52.986;17.490;2023-02-03T07:25:24;100083.45;;;-0.66;89.96
77027;BME280;65956;52.986;17.490;2023-02-03T07:27:52;100078.63;;;-0.63;90.04
77027;BME280;65956;52.986;17.490;2023-02-03T07:30:19;100069.77;;;-0.61;89.92
77027;BME280;65956;52.986;17.490;2023-02-03T07:32:48;100063.95;;;-0.60;89.77
77027;BME280;65956;52.986;17.490;2023-02-03T07:35:16;100054.42;;;-0.54;89.94
77027;BME280;65956;52.986;17.490;2023-02-03T07:37:43;100053.48;;;-0.51;89.89
77027;BME280;65956;52.986;17.490;2023-02-03T07:40:12;100048.64;;;-0.50;89.80
77027;BME280;65956;52.986;17.490;2023-02-03T07:42:44;100036.59;;;-0.47;89.85
77027;BME280;65956;52.986;17.490;2023-02-03T07:45:13;100021.17;;;-0.45;89.85
77027;BME280;65956;52.986;17.490;2023-02-03T07:47:42;100010.44;;;-0.42;90.00
77027;BME280;65956;52.986;17.490;2023-02-03T07:50:10;100001.10;;;-0.40;89.84
77027;BME280;65956;52.986;17.490;2023-02-03T07:52:38;99998.59;;;-0.39;89.81
77027;BME280;65956;52.986;17.490;2023-02-03T07:55:06;99992.91;;;-0.37;89.59
77027;BME280;65956;52.986;17.490;2023-02-03T07:57:33;99985.52;;;-0.36;89.61
77027;BME280;65956;52.986;17.490;2023-02-03T08:00:01;99976.14;;;-0.34;89.67
77027;BME280;65956;52.986;17.490;2023-02-03T08:02:40;99979.12;;;-0.32;89.72
77027;BME280;65956;52.986;17.490;2023-02-03T08:05:09;99964.28;;;-0.30;89.51
77027;BME280;65956;52.986;17.490;2023-02-03T08:07:36;99956.61;;;-0.27;89.63
77027;BME280;65956;52.986;17.490;2023-02-03T08:10:04;99947.13;;;-0.23;89.64
77027;BME280;65956;52.986;17.490;2023-02-03T08:12:32;99932.80;;;-0.21;89.44
77027;BME280;65956;52.986;17.490;2023-02-03T08:15:00;99921.41;;;-0.18;89.53
77027;BME280;65956;52.986;17.490;2023-02-03T08:17:27;99909.54;;;-0.18;89.47
77027;BME280;65956;52.986;17.490;2023-02-03T08:19:54;99897.30;;;-0.18;89.51
77027;BME280;65956;52.986;17.490;2023-02-03T08:22:22;99887.82;;;-0.13;89.39
77027;BME280;65956;52.986;17.490;2023-02-03T08:24:49;99881.64;;;-0.12;89.31
77027;BME280;65956;52.986;17.490;2023-02-03T08:27:20;99878.60;;;-0.10;89.40
77027;BME280;65956;52.986;17.490;2023-02-03T08:29:48;99873.52;;;-0.09;89.32
77027;BME280;65956;52.986;17.490;2023-02-03T08:32:17;99859.02;;;-0.07;89.51
77027;BME280;65956;52.986;17.490;2023-02-03T08:34:46;99851.72;;;-0.06;89.46
77027;BME280;65956;52.986;17.490;2023-02-03T08:37:15;99842.71;;;-0.04;89.54
77027;BME280;65956;52.986;17.490;2023-02-03T08:39:43;99827.72;;;0.00;89.56
77027;BME280;65956;52.986;17.490;2023-02-03T08:42:11;99825.16;;;0.04;89.70
77027;BME280;65956;52.986;17.490;2023-02-03T08:44:38;99811.94;;;0.05;89.40
77027;BME280;65956;52.986;17.490;2023-02-03T08:47:06;99806.50;;;0.05;89.57
77027;BME280;65956;52.986;17.490;2023-02-03T08:49:33;99795.45;;;0.03;89.68
77027;BME280;65956;52.986;17.490;2023-02-03T08:52:01;99787.05;;;0.06;89.59
77027;BME280;65956;52.986;17.490;2023-02-03T08:54:28;99783.23;;;0.08;89.71
77027;BME280;65956;52.986;17.490;2023-02-03T08:56:56;99767.26;;;0.11;89.67
77027;BME280;65956;52.986;17.490;2023-02-03T08:59:23;99752.70;;;0.15;89.68
77027;BME280;65956;52.986;17.490;2023-02-03T09:01:51;99732.48;;;0.20;89.54
77027;BME280;65956;52.986;17.490;2023-02-03T09:04:18;99730.85;;;0.21;89.52
77027;BME280;65956;52.986;17.490;2023-02-03T09:06:50;99719.27;;;0.22;89.36
77027;BME280;65956;52.986;17.490;2023-02-03T09:09:17;99712.81;;;0.19;89.41
77027;BME280;65956;52.986;17.490;2023-02-03T09:11:44;99699.70;;;0.16;89.44
77027;BME280;65956;52.986;17.490;2023-02-03T09:14:12;99698.39;;;0.14;89.46
77027;BME280;65956;52.986;17.490;2023-02-03T09:16:39;99689.67;;;0.10;89.46
77027;BME280;65956;52.986;17.490;2023-02-03T09:19:06;99687.19;;;0.06;89.57
77027;BME280;65956;52.986;17.490;2023-02-03T09:21:33;99671.04;;;0.05;89.70
77027;BME280;65956;52.986;17.490;2023-02-03T09:24:02;99667.94;;;0.01;89.86
77027;BME280;65956;52.986;17.490;2023-02-03T09:26:29;99653.27;;;-0.06;90.02
77027;BME280;65956;52.986;17.490;2023-02-03T09:28:57;99647.40;;;-0.10;90.06
77027;BME280;65956;52.986;17.490;2023-02-03T09:31:24;99641.17;;;-0.13;90.21
77027;BME280;65956;52.986;17.490;2023-02-03T09:33:51;99633.63;;;-0.14;90.22
77027;BME280;65956;52.986;17.490;2023-02-03T09:36:19;99626.73;;;-0.12;90.70
77027;BME280;65956;52.986;17.490;2023-02-03T09:38:46;99612.31;;;-0.13;90.81
77027;BME280;65956;52.986;17.490;2023-02-03T09:41:44;99604.16;;;-0.13;90.82
77027;BME280;65956;52.986;17.490;2023-02-03T09:46:49;99585.85;;;-0.10;91.02
77027;BME280;65956;52.986;17.490;2023-02-03T09:49:34;99569.38;;;-0.07;90.91
77027;BME280;65956;52.986;17.490;2023-02-03T09:52:14;99561.63;;;-0.05;90.94
77027;BME280;65956;52.986;17.490;2023-02-03T09:54:50;99556.08;;;-0.01;90.88
77027;BME280;65956;52.986;17.490;2023-02-03T09:57:27;99542.39;;;0.07;90.89
77027;BME280;65956;52.986;17.490;2023-02-03T09:59:56;99533.83;;;0.14;90.79
77027;BME280;65956;52.986;17.490;2023-02-03T10:02:36;99528.18;;;0.19;90.91
77027;BME280;65956;52.986;17.490;2023-02-03T10:05:26;99514.19;;;0.26;90.40
77027;BME280;65956;52.986;17.490;2023-02-03T10:19:44;99465.31;;;0.49;89.97
77027;BME280;65956;52.986;17.490;2023-02-03T10:22:20;99453.65;;;0.55;89.46
77027;BME280;65956;52.986;17.490;2023-02-03T10:25:06;99444.11;;;0.55;89.64
77027;BME280;65956;52.986;17.490;2023-02-03T10:27:37;99439.39;;;0.51;89.64
77027;BME280;65956;52.986;17.490;2023-02-03T10:30:18;99433.46;;;0.48;89.70
77027;BME280;65956;52.986;17.490;2023-02-03T10:33:13;99424.41;;;0.45;89.64
77027;BME280;65956;52.986;17.490;2023-02-03T10:38:50;99401.89;;;0.40;90.05
77027;BME280;65956;52.986;17.490;2023-02-03T10:41:21;99389.45;;;0.42;90.05
77027;BME280;65956;52.986;17.490;2023-02-03T10:43:50;99384.68;;;0.40;90.02
77027;BME280;65956;52.986;17.490;2023-02-03T10:46:29;99373.02;;;0.37;90.26
77027;BME280;65956;52.986;17.490;2023-02-03T10:48:58;99360.48;;;0.33;90.45
77027;BME280;65956;52.986;17.490;2023-02-03T10:51:29;99346.27;;;0.26;90.59
77027;BME280;65956;52.986;17.490;2023-02-03T10:54:03;99342.77;;;0.23;90.69
77027;BME280;65956;52.986;17.490;2023-02-03T10:56:35;99329.79;;;0.23;91.09
77027;BME280;65956;52.986;17.490;2023-02-03T10:59:05;99314.23;;;0.21;91.27
77027;BME280;65956;52.986;17.490;2023-02-03T11:01:41;99301.63;;;0.21;91.36
77027;BME280;65956;52.986;17.490;2023-02-03T11:04:31;99283.36;;;0.21;91.38
77027;BME280;65956;52.986;17.490;2023-02-03T11:07:04;99268.91;;;0.20;91.59
77027;BME280;65956;52.986;17.490;2023-02-03T11:09:40;99260.63;;;0.22;91.68
77027;BME280;65956;52.986;17.490;2023-02-03T11:12:17;99245.67;;;0.25;91.82
77027;BME280;65956;52.986;17.490;2023-02-03T11:14:50;99232.41;;;0.28;91.92
77027;BME280;65956;52.986;17.490;2023-02-03T11:19:47;99225.13;;;0.35;91.79
77027;BME280;65956;52.986;17.490;2023-02-03T11:22:34;99220.36;;;0.36;91.64
77027;BME280;65956;52.986;17.490;2023-02-03T11:25:04;99210.27;;;0.38;91.77
77027;BME280;65956;52.986;17.490;2023-02-03T11:27:42;99197.33;;;0.38;91.78
77027;BME280;65956;52.986;17.490;2023-02-03T11:30:27;99191.33;;;0.39;91.70
77027;BME280;65956;52.986;17.490;2023-02-03T11:33:01;99183.64;;;0.42;91.70
77027;BME280;65956;52.986;17.490;2023-02-03T11:35:30;99180.48;;;0.43;91.75
77027;BME280;65956;52.986;17.490;2023-02-03T11:38:00;99183.17;;;0.44;91.78
77027;BME280;65956;52.986;17.490;2023-02-03T11:40:32;99175.04;;;0.45;91.84
77027;BME280;65956;52.986;17.490;2023-02-03T11:43:03;99168.17;;;0.45;91.67
77027;BME280;65956;52.986;17.490;2023-02-03T11:45:36;99170.39;;;0.46;91.59
77027;BME280;65956;52.986;17.490;2023-02-03T12:07:34;99111.11;;;0.78;91.52
77027;BME280;65956;52.986;17.490;2023-02-03T12:10:23;99106.92;;;0.85;91.46
77027;BME280;65956;52.986;17.490;2023-02-03T12:15:49;99093.89;;;0.98;91.35
77027;BME280;65956;52.986;17.490;2023-02-03T12:26:34;99082.17;;;1.13;90.95
77027;BME280;65956;52.986;17.490;2023-02-03T12:32:13;99068.27;;;1.19;91.10
77027;BME280;65956;52.986;17.490;2023-02-03T12:34:58;99070.71;;;1.28;91.38
77027;BME280;65956;52.986;17.490;2023-02-03T12:43:13;99066.40;;;1.57;91.65
77027;BME280;65956;52.986;17.490;2023-02-03T12:46:14;99059.32;;;1.59;91.82
77027;BME280;65956;52.986;17.490;2023-02-03T12:57:03;99044.80;;;1.66;91.64
77027;BME280;65956;52.986;17.490;2023-02-03T12:59:39;99046.41;;;1.67;91.63
77027;BME280;65956;52.986;17.490;2023-02-03T13:02:23;99047.83;;;1.67;91.75
77027;BME280;65956;52.986;17.490;2023-02-03T13:05:07;99048.88;;;1.71;91.54
77027;BME280;65956;52.986;17.490;2023-02-03T13:07:53;99045.01;;;1.75;91.54
77027;BME280;65956;52.986;17.490;2023-02-03T13:10:45;99041.57;;;1.80;91.58
77027;BME280;65956;52.986;17.490;2023-02-03T13:13:19;99038.09;;;1.85;91.56
77027;BME280;65956;52.986;17.490;2023-02-03T13:15:50;99032.91;;;1.87;91.57
77027;BME280;65956;52.986;17.490;2023-02-03T13:18:36;99030.57;;;1.88;91.52
77027;BME280;65956;52.986;17.490;2023-02-03T13:21:04;99033.58;;;1.91;91.45
77027;BME280;65956;52.986;17.490;2023-02-03T13:23:31;99031.94;;;1.94;91.48
77027;BME280;65956;52.986;17.490;2023-02-03T13:31:24;99027.59;;;2.08;91.68
77027;BME280;65956;52.986;17.490;2023-02-03T13:34:20;99028.77;;;2.11;91.63
77027;BME280;65956;52.986;17.490;2023-02-03T13:40:44;99031.17;;;2.19;91.79
77027;BME280;65956;52.986;17.490;2023-02-03T13:43:18;99028.33;;;2.23;91.90
77027;BME280;65956;52.986;17.490;2023-02-03T13:45:50;99026.90;;;2.25;91.76
77027;BME280;65956;52.986;17.490;2023-02-03T13:48:25;99030.05;;;2.28;91.76
77027;BME280;65956;52.986;17.490;2023-02-03T13:51:21;99029.49;;;2.34;91.92
77027;BME280;65956;52.986;17.490;2023-02-03T13:53:57;99034.34;;;2.38;91.89
77027;BME280;65956;52.986;17.490;2023-02-03T13:56:26;99033.08;;;2.41;91.68
77027;BME280;65956;52.986;17.490;2023-02-03T13:59:03;99035.08;;;2.45;91.63
77027;BME280;65956;52.986;17.490;2023-02-03T14:01:38;99036.83;;;2.51;91.63
77027;BME280;65956;52.986;17.490;2023-02-03T14:07:01;99041.36;;;2.61;91.26
77027;BME280;65956;52.986;17.490;2023-02-03T14:15:30;99044.82;;;2.79;91.00
77027;BME280;65956;52.986;17.490;2023-02-03T14:23:15;99049.25;;;3.00;90.78
77027;BME280;65956;52.986;17.490;2023-02-03T14:25:48;99050.93;;;3.05;90.52
77027;BME280;65956;52.986;17.490;2023-02-03T14:28:20;99057.31;;;3.05;90.30
77027;BME280;65956;52.986;17.490;2023-02-03T14:36:37;99064.79;;;3.14;89.79
77027;BME280;65956;52.986;17.490;2023-02-03T14:42:08;99076.44;;;3.15;89.70
77027;BME280;65956;52.986;17.490;2023-02-03T14:44:42;99086.52;;;3.15;89.72
77027;BME280;65956;52.986;17.490;2023-02-03T14:58:42;99100.39;;;3.07;90.03
77027;BME280;65956;52.986;17.490;2023-02-03T15:02:07;99100.27;;;3.06;90.11
77027;BME280;65956;52.986;17.490;2023-02-03T15:06:45;99111.23;;;3.01;90.34
77027;BME280;65956;52.986;17.490;2023-02-03T15:09:37;99108.31;;;3.01;90.34
77027;BME280;65956;52.986;17.490;2023-02-03T15:14:44;99109.74;;;3.02;90.34
77027;BME280;65956;52.986;17.490;2023-02-03T15:17:25;99114.85;;;3.01;90.45
77027;BME280;65956;52.986;17.490;2023-02-03T15:19:53;99127.35;;;3.04;90.39
77027;BME280;65956;52.986;17.490;2023-02-03T15:22:28;99125.61;;;3.04;90.19
77027;BME280;65956;52.986;17.490;2023-02-03T15:25:01;99121.92;;;3.01;90.26
77027;BME280;65956;52.986;17.490;2023-02-03T15:27:33;99125.56;;;2.97;90.32
77027;BME280;65956;52.986;17.490;2023-02-03T15:30:24;99127.13;;;2.99;90.40
77027;BME280;65956;52.986;17.490;2023-02-03T15:33:06;99130.94;;;3.00;90.52
77027;BME280;65956;52.986;17.490;2023-02-03T15:35:36;99130.77;;;2.99;90.58